sensor_id;sensor_type;location;lat;lon;timestamp;P1;durP1;ratioP1;P2;durP2;ratioP2
74510;SDS011;62991;50.040;18.400;2023-04-01T00:01:36;10.50;;;3.50;;
74510;SDS011;62991;50.040;18.400;2023-04-01T00:04:37;6.63;;;2.83;;
74510;SDS011;62991;50.040;18.400;2023-04-01T00:07:38;5.60;;;2.75;;
74510;SDS011;62991;50.040;18.400;2023-04-01T00:10:40;6.30;;;3.03;;
74510;SDS011;62991;50.040;18.400;2023-04-01T00:13:41;5.78;;;2.42;;
74510;SDS011;62991;50.040;18.400;2023-04-01T00:16:42;6.20;;;3.00;;
74510;SDS011;62991;50.040;18.400;2023-04-01T00:19:43;10.27;;;3.97;;
74510;SDS011;62991;50.040;18.400;2023-04-01T00:22:44;3.67;;;1.92;;
74510;SDS011;62991;50.040;18.400;2023-04-01T00:25:45;7.90;;;3.05;;
74510;SDS011;62991;50.040;18.400;2023-04-01T00:28:48;6.20;;;2.78;;
74510;SDS011;62991;50.040;18.400;2023-04-01T00:31:49;10.60;;;3.75;;
74510;SDS011;62991;50.040;18.400;2023-04-01T00:34:50;14.30;;;4.03;;
74510;SDS011;62991;50.040;18.400;2023-04-01T00:37:51;4.82;;;2.83;;
74510;SDS011;62991;50.040;18.400;2023-04-01T00:40:57;7.20;;;3.05;;
74510;SDS011;62991;50.040;18.400;2023-04-01T00:44:14;8.90;;;4.20;;
74510;SDS011;62991;50.040;18.400;2023-04-01T00:47:20;7.95;;;3.45;;
74510;SDS011;62991;50.040;18.400;2023-04-01T00:50:23;11.25;;;4.28;;
74510;SDS011;62991;50.040;18.400;2023-04-01T00:53:26;14.32;;;5.75;;
74510;SDS011;62991;50.040;18.400;2023-04-01T00:56:30;13.85;;;4.15;;
74510;SDS011;62991;50.040;18.400;2023-04-01T01:02:44;16.60;;;5.90;;
74510;SDS011;62991;50.040;18.400;2023-04-01T01:06:30;18.60;;;6.22;;
74510;SDS011;62991;50.040;18.400;2023-04-01T01:33:26;7.00;;;3.80;;
74510;SDS011;62991;50.040;18.400;2023-04-01T01:36:32;7.30;;;2.72;;
74510;SDS011;62991;50.040;18.400;2023-04-01T01:39:34;8.48;;;3.15;;
74510;SDS011;62991;50.040;18.400;2023-04-01T01:42:38;10.48;;;3.50;;
74510;SDS011;62991;50.040;18.400;2023-04-01T01:45:44;5.57;;;2.35;;
74510;SDS011;62991;50.040;18.400;2023-04-01T01:48:49;5.88;;;2.75;;
74510;SDS011;62991;50.040;18.400;2023-04-01T01:51:51;8.95;;;2.83;;
74510;SDS011;62991;50.040;18.400;2023-04-01T01:54:53;5.45;;;2.53;;
74510;SDS011;62991;50.040;18.400;2023-04-01T01:57:56;5.25;;;2.50;;
74510;SDS011;62991;50.040;18.400;2023-04-01T02:01:04;5.18;;;2.40;;
74510;SDS011;62991;50.040;18.400;2023-04-01T02:04:07;7.60;;;2.53;;
74510;SDS011;62991;50.040;18.400;2023-04-01T02:07:15;8.07;;;2.65;;
74510;SDS011;62991;50.040;18.400;2023-04-01T02:10:22;5.68;;;2.80;;
74510;SDS011;62991;50.040;18.400;2023-04-01T02:13:31;7.60;;;2.70;;
74510;SDS011;62991;50.040;18.400;2023-04-01T02:17:12;2.90;;;1.45;;
74510;SDS011;62991;50.040;18.400;2023-04-01T02:20:22;8.43;;;2.50;;
74510;SDS011;62991;50.040;18.400;2023-04-01T02:23:24;4.63;;;1.95;;
74510;SDS011;62991;50.040;18.400;2023-04-01T02:26:26;7.40;;;2.85;;
74510;SDS011;62991;50.040;18.400;2023-04-01T02:29:27;5.05;;;2.55;;
74510;SDS011;62991;50.040;18.400;2023-04-01T02:32:28;6.10;;;2.47;;
74510;SDS011;62991;50.040;18.400;2023-04-01T02:35:32;5.63;;;2.53;;
74510;SDS011;62991;50.040;18.400;2023-04-01T02:38:37;6.18;;;2.58;;
74510;SDS011;62991;50.040;18.400;2023-04-01T02:41:42;6.65;;;2.97;;
74510;SDS011;62991;50.040;18.400;2023-04-01T02:44:45;10.77;;;3.17;;
74510;SDS011;62991;50.040;18.400;2023-04-01T02:47:45;6.63;;;3.28;;
74510;SDS011;62991;50.040;18.400;2023-04-01T02:50:46;5.32;;;2.58;;
74510;SDS011;62991;50.040;18.400;2023-04-01T02:53:47;7.30;;;3.42;;
74510;SDS011;62991;50.040;18.400;2023-04-01T02:56:47;6.78;;;3.83;;
74510;SDS011;62991;50.040;18.400;2023-04-01T02:59:48;6.40;;;3.17;;
74510;SDS011;62991;50.040;18.400;2023-04-01T03:02:49;7.68;;;3.10;;
74510;SDS011;62991;50.040;18.400;2023-04-01T03:05:50;5.32;;;2.50;;
74510;SDS011;62991;50.040;18.400;2023-04-01T03:08:50;8.15;;;2.80;;
74510;SDS011;62991;50.040;18.400;2023-04-01T03:11:51;6.47;;;3.00;;
74510;SDS011;62991;50.040;18.400;2023-04-01T03:14:52;7.63;;;2.67;;
74510;SDS011;62991;50.040;18.400;2023-04-01T03:17:52;5.95;;;2.25;;
74510;SDS011;62991;50.040;18.400;2023-04-01T03:20:53;4.60;;;2.25;;
74510;SDS011;62991;50.040;18.400;2023-04-01T03:23:54;5.57;;;2.40;;
74510;SDS011;62991;50.040;18.400;2023-04-01T03:26:55;8.57;;;2.88;;
74510;SDS011;62991;50.040;18.400;2023-04-01T03:29:55;9.35;;;3.63;;
74510;SDS011;62991;50.040;18.400;2023-04-01T03:32:59;9.00;;;3.47;;
74510;SDS011;62991;50.040;18.400;2023-04-01T03:36:00;14.93;;;4.97;;
74510;SDS011;62991;50.040;18.400;2023-04-01T03:39:03;9.30;;;4.53;;
74510;SDS011;62991;50.040;18.400;2023-04-01T03:42:05;62.15;;;31.10;;
74510;SDS011;62991;50.040;18.400;2023-04-01T03:45:06;35.83;;;13.38;;
74510;SDS011;62991;50.040;18.400;2023-04-01T03:48:07;66.85;;;18.80;;
74510;SDS011;62991;50.040;18.400;2023-04-01T03:51:08;92.43;;;29.45;;
74510;SDS011;62991;50.040;18.400;2023-04-01T03:54:09;63.83;;;16.95;;
74510;SDS011;62991;50.040;18.400;2023-04-01T03:57:10;64.97;;;15.88;;
74510;SDS011;62991;50.040;18.400;2023-04-01T04:00:11;105.38;;;31.40;;
74510;SDS011;62991;50.040;18.400;2023-04-01T04:03:12;59.08;;;17.92;;
74510;SDS011;62991;50.040;18.400;2023-04-01T04:06:13;61.17;;;16.35;;
74510;SDS011;62991;50.040;18.400;2023-04-01T04:09:14;48.67;;;13.93;;
74510;SDS011;62991;50.040;18.400;2023-04-01T04:12:14;83.72;;;24.67;;
74510;SDS011;62991;50.040;18.400;2023-04-01T04:15:15;63.55;;;19.13;;
74510;SDS011;62991;50.040;18.400;2023-04-01T04:18:16;41.42;;;10.40;;
74510;SDS011;62991;50.040;18.400;2023-04-01T04:21:16;27.05;;;9.20;;
74510;SDS011;62991;50.040;18.400;2023-04-01T04:24:17;21.65;;;8.23;;
74510;SDS011;62991;50.040;18.400;2023-04-01T04:27:18;28.92;;;9.73;;
74510;SDS011;62991;50.040;18.400;2023-04-01T04:30:19;21.25;;;9.07;;
74510;SDS011;62991;50.040;18.400;2023-04-01T04:33:20;8.07;;;3.85;;
74510;SDS011;62991;50.040;18.400;2023-04-01T04:36:21;8.13;;;4.38;;
74510;SDS011;62991;50.040;18.400;2023-04-01T04:39:22;14.38;;;6.32;;
74510;SDS011;62991;50.040;18.400;2023-04-01T04:42:23;20.65;;;6.22;;
74510;SDS011;62991;50.040;18.400;2023-04-01T04:45:23;14.40;;;5.93;;
74510;SDS011;62991;50.040;18.400;2023-04-01T04:48:24;12.80;;;5.05;;
74510;SDS011;62991;50.040;18.400;2023-04-01T04:51:25;11.57;;;5.53;;
74510;SDS011;62991;50.040;18.400;2023-04-01T04:54:25;12.07;;;6.10;;
74510;SDS011;62991;50.040;18.400;2023-04-01T04:57:26;7.85;;;4.65;;
74510;SDS011;62991;50.040;18.400;2023-04-01T05:00:27;15.10;;;6.50;;
74510;SDS011;62991;50.040;18.400;2023-04-01T05:03:27;11.85;;;5.95;;
74510;SDS011;62991;50.040;18.400;2023-04-01T05:06:28;12.70;;;5.43;;
74510;SDS011;62991;50.040;18.400;2023-04-01T05:09:31;15.18;;;5.63;;
74510;SDS011;62991;50.040;18.400;2023-04-01T05:12:33;11.75;;;5.28;;
74510;SDS011;62991;50.040;18.400;2023-04-01T05:15:37;13.68;;;4.70;;
74510;SDS011;62991;50.040;18.400;2023-04-01T05:18:38;13.55;;;5.13;;
74510;SDS011;62991;50.040;18.400;2023-04-01T05:21:38;8.30;;;4.18;;
74510;SDS011;62991;50.040;18.400;2023-04-01T05:24:39;7.50;;;3.78;;
74510;SDS011;62991;50.040;18.400;2023-04-01T05:27:40;6.45;;;2.88;;
74510;SDS011;62991;50.040;18.400;2023-04-01T05:30:41;6.05;;;2.60;;
74510;SDS011;62991;50.040;18.400;2023-04-01T05:33:43;9.35;;;3.97;;
74510;SDS011;62991;50.040;18.400;2023-04-01T05:36:44;10.20;;;4.65;;
74510;SDS011;62991;50.040;18.400;2023-04-01T05:39:45;15.38;;;5.65;;
74510;SDS011;62991;50.040;18.400;2023-04-01T05:42:46;10.43;;;3.58;;
74510;SDS011;62991;50.040;18.400;2023-04-01T05:45:48;10.07;;;4.00;;
74510;SDS011;62991;50.040;18.400;2023-04-01T05:48:48;16.08;;;5.32;;
74510;SDS011;62991;50.040;18.400;2023-04-01T05:51:49;13.48;;;4.72;;
74510;SDS011;62991;50.040;18.400;2023-04-01T05:54:51;19.60;;;7.35;;
74510;SDS011;62991;50.040;18.400;2023-04-01T05:57:51;46.33;;;12.77;;
74510;SDS011;62991;50.040;18.400;2023-04-01T06:00:52;72.13;;;17.42;;
74510;SDS011;62991;50.040;18.400;2023-04-01T06:04:01;50.97;;;10.88;;
74510;SDS011;62991;50.040;18.400;2023-04-01T06:07:04;35.65;;;9.10;;
74510;SDS011;62991;50.040;18.400;2023-04-01T06:10:15;12.35;;;4.35;;
74510;SDS011;62991;50.040;18.400;2023-04-01T06:13:26;22.50;;;5.90;;
74510;SDS011;62991;50.040;18.400;2023-04-01T06:23:27;29.98;;;8.57;;
74510;SDS011;62991;50.040;18.400;2023-04-01T06:26:44;19.88;;;5.95;;
74510;SDS011;62991;50.040;18.400;2023-04-01T06:33:29;15.80;;;4.50;;
74510;SDS011;62991;50.040;18.400;2023-04-01T06:46:48;6.18;;;2.67;;
74510;SDS011;62991;50.040;18.400;2023-04-01T06:53:27;10.20;;;3.42;;
74510;SDS011;62991;50.040;18.400;2023-04-01T06:56:30;2.53;;;0.93;;
74510;SDS011;62991;50.040;18.400;2023-04-01T06:59:33;9.25;;;3.28;;
74510;SDS011;62991;50.040;18.400;2023-04-01T07:06:00;3.83;;;2.03;;
74510;SDS011;62991;50.040;18.400;2023-04-01T07:09:06;6.45;;;2.20;;
74510;SDS011;62991;50.040;18.400;2023-04-01T07:12:29;22.35;;;7.03;;
74510;SDS011;62991;50.040;18.400;2023-04-01T07:15:36;9.73;;;4.10;;
74510;SDS011;62991;50.040;18.400;2023-04-01T07:18:50;12.02;;;4.70;;
74510;SDS011;62991;50.040;18.400;2023-04-01T07:25:22;6.90;;;3.15;;
74510;SDS011;62991;50.040;18.400;2023-04-01T07:28:32;7.03;;;3.30;;
74510;SDS011;62991;50.040;18.400;2023-04-01T07:38:09;6.03;;;2.20;;
74510;SDS011;62991;50.040;18.400;2023-04-01T07:47:34;6.40;;;2.85;;
74510;SDS011;62991;50.040;18.400;2023-04-01T07:53:56;7.85;;;2.70;;
74510;SDS011;62991;50.040;18.400;2023-04-01T07:57:12;8.95;;;3.47;;
74510;SDS011;62991;50.040;18.400;2023-04-01T08:00:41;5.95;;;2.20;;
74510;SDS011;62991;50.040;18.400;2023-04-01T08:07:09;11.82;;;5.50;;
74510;SDS011;62991;50.040;18.400;2023-04-01T08:10:26;13.00;;;5.05;;
74510;SDS011;62991;50.040;18.400;2023-04-01T08:13:46;1.05;;;0.82;;
74510;SDS011;62991;50.040;18.400;2023-04-01T08:17:09;17.20;;;5.13;;
74510;SDS011;62991;50.040;18.400;2023-04-01T08:20:41;3.78;;;2.08;;
74510;SDS011;62991;50.040;18.400;2023-04-01T08:23:54;12.48;;;5.20;;
74510;SDS011;62991;50.040;18.400;2023-04-01T08:27:12;15.27;;;6.88;;
74510;SDS011;62991;50.040;18.400;2023-04-01T08:30:21;19.52;;;7.43;;
74510;SDS011;62991;50.040;18.400;2023-04-01T08:33:29;9.85;;;2.80;;
74510;SDS011;62991;50.040;18.400;2023-04-01T08:36:32;2.40;;;1.73;;
74510;SDS011;62991;50.040;18.400;2023-04-01T08:39:38;3.90;;;1.63;;
74510;SDS011;62991;50.040;18.400;2023-04-01T08:43:10;4.65;;;2.35;;
74510;SDS011;62991;50.040;18.400;2023-04-01T08:46:54;5.53;;;2.28;;
74510;SDS011;62991;50.040;18.400;2023-04-01T08:57:04;3.20;;;1.98;;
74510;SDS011;62991;50.040;18.400;2023-04-01T09:00:19;1.45;;;1.00;;
74510;SDS011;62991;50.040;18.400;2023-04-01T09:10:07;7.18;;;2.83;;
74510;SDS011;62991;50.040;18.400;2023-04-01T09:13:51;4.15;;;2.30;;
74510;SDS011;62991;50.040;18.400;2023-04-01T09:24:58;10.55;;;3.95;;
74510;SDS011;62991;50.040;18.400;2023-04-01T09:58:17;10.85;;;3.53;;
74510;SDS011;62991;50.040;18.400;2023-04-01T10:15:00;2.72;;;1.25;;
74510;SDS011;62991;50.040;18.400;2023-04-01T10:38:41;4.63;;;1.63;;
74510;SDS011;62991;50.040;18.400;2023-04-01T10:58:48;11.23;;;4.07;;
74510;SDS011;62991;50.040;18.400;2023-04-01T11:12:04;7.53;;;2.92;;
74510;SDS011;62991;50.040;18.400;2023-04-01T11:29:24;4.03;;;1.50;;
74510;SDS011;62991;50.040;18.400;2023-04-01T11:32:53;8.07;;;2.55;;
74510;SDS011;62991;50.040;18.400;2023-04-01T11:36:04;8.38;;;2.90;;
74510;SDS011;62991;50.040;18.400;2023-04-01T11:39:17;10.60;;;4.53;;
74510;SDS011;62991;50.040;18.400;2023-04-01T11:45:57;6.05;;;1.98;;
74510;SDS011;62991;50.040;18.400;2023-04-01T11:55:23;13.50;;;4.43;;
74510;SDS011;62991;50.040;18.400;2023-04-01T12:50:19;6.55;;;2.60;;
74510;SDS011;62991;50.040;18.400;2023-04-01T13:21:07;12.73;;;3.83;;
74510;SDS011;62991;50.040;18.400;2023-04-01T13:27:51;5.40;;;2.50;;
74510;SDS011;62991;50.040;18.400;2023-04-01T13:31:07;9.80;;;3.00;;
74510;SDS011;62991;50.040;18.400;2023-04-01T13:41:09;14.57;;;5.88;;
74510;SDS011;62991;50.040;18.400;2023-04-01T13:44:38;7.93;;;2.40;;
74510;SDS011;62991;50.040;18.400;2023-04-01T13:51:18;9.00;;;3.25;;
74510;SDS011;62991;50.040;18.400;2023-04-01T13:54:44;8.40;;;3.50;;
74510;SDS011;62991;50.040;18.400;2023-04-01T14:35:15;30.17;;;8.38;;
74510;SDS011;62991;50.040;18.400;2023-04-01T14:52:33;4.57;;;2.10;;
74510;SDS011;62991;50.040;18.400;2023-04-01T14:58:45;6.25;;;2.40;;
74510;SDS011;62991;50.040;18.400;2023-04-01T15:01:55;8.10;;;3.25;;
74510;SDS011;62991;50.040;18.400;2023-04-01T15:08:24;5.10;;;2.75;;
74510;SDS011;62991;50.040;18.400;2023-04-01T15:18:18;6.13;;;2.72;;
74510;SDS011;62991;50.040;18.400;2023-04-01T15:45:41;7.80;;;3.65;;
74510;SDS011;62991;50.040;18.400;2023-04-01T16:03:06;15.30;;;6.93;;
74510;SDS011;62991;50.040;18.400;2023-04-01T16:09:35;29.85;;;10.13;;
74510;SDS011;62991;50.040;18.400;2023-04-01T16:22:32;20.90;;;7.93;;
74510;SDS011;62991;50.040;18.400;2023-04-01T16:26:01;22.00;;;8.55;;
74510;SDS011;62991;50.040;18.400;2023-04-01T16:29:32;24.77;;;9.38;;
74510;SDS011;62991;50.040;18.400;2023-04-01T16:32:52;35.40;;;11.00;;
74510;SDS011;62991;50.040;18.400;2023-04-01T16:39:49;39.35;;;13.30;;
74510;SDS011;62991;50.040;18.400;2023-04-01T16:43:12;30.23;;;9.88;;
74510;SDS011;62991;50.040;18.400;2023-04-01T16:46:52;26.90;;;7.43;;
74510;SDS011;62991;50.040;18.400;2023-04-01T16:50:22;23.83;;;7.85;;
74510;SDS011;62991;50.040;18.400;2023-04-01T16:56:49;6.53;;;2.28;;
74510;SDS011;62991;50.040;18.400;2023-04-01T16:59:56;7.13;;;2.63;;
74510;SDS011;62991;50.040;18.400;2023-04-01T17:03:42;4.38;;;2.28;;
74510;SDS011;62991;50.040;18.400;2023-04-01T17:06:49;6.10;;;2.70;;
74510;SDS011;62991;50.040;18.400;2023-04-01T17:20:43;14.90;;;5.32;;
74510;SDS011;62991;50.040;18.400;2023-04-01T17:41:01;18.60;;;6.38;;
74510;SDS011;62991;50.040;18.400;2023-04-01T17:47:43;12.13;;;3.70;;
74510;SDS011;62991;50.040;18.400;2023-04-01T17:54:44;10.38;;;4.05;;
74510;SDS011;62991;50.040;18.400;2023-04-01T18:21:44;6.65;;;2.90;;
74510;SDS011;62991;50.040;18.400;2023-04-01T18:25:02;7.63;;;3.10;;
74510;SDS011;62991;50.040;18.400;2023-04-01T18:37:55;10.05;;;3.53;;
74510;SDS011;62991;50.040;18.400;2023-04-01T18:41:15;6.97;;;2.90;;
74510;SDS011;62991;50.040;18.400;2023-04-01T18:51:25;8.32;;;3.40;;
74510;SDS011;62991;50.040;18.400;2023-04-01T18:54:45;8.45;;;3.03;;
74510;SDS011;62991;50.040;18.400;2023-04-01T19:01:31;7.78;;;3.17;;
74510;SDS011;62991;50.040;18.400;2023-04-01T19:04:43;7.30;;;3.60;;
74510;SDS011;62991;50.040;18.400;2023-04-01T19:07:52;10.00;;;4.07;;
74510;SDS011;62991;50.040;18.400;2023-04-01T19:21:42;9.73;;;4.38;;
74510;SDS011;62991;50.040;18.400;2023-04-01T19:24:49;9.90;;;4.05;;
74510;SDS011;62991;50.040;18.400;2023-04-01T19:28:06;16.63;;;6.80;;
74510;SDS011;62991;50.040;18.400;2023-04-01T19:38:06;78.95;;;20.35;;
74510;SDS011;62991;50.040;18.400;2023-04-01T19:41:52;56.58;;;18.20;;
74510;SDS011;62991;50.040;18.400;2023-04-01T19:45:14;48.33;;;14.73;;
74510;SDS011;62991;50.040;18.400;2023-04-01T19:52:00;33.20;;;10.88;;
74510;SDS011;62991;50.040;18.400;2023-04-01T19:58:52;31.15;;;11.13;;
74510;SDS011;62991;50.040;18.400;2023-04-01T20:08:32;30.85;;;11.05;;
74510;SDS011;62991;50.040;18.400;2023-04-01T20:21:47;43.95;;;15.80;;
74510;SDS011;62991;50.040;18.400;2023-04-01T20:24:49;63.28;;;21.92;;
74510;SDS011;62991;50.040;18.400;2023-04-01T20:51:19;13.82;;;5.82;;
74510;SDS011;62991;50.040;18.400;2023-04-01T20:57:45;26.88;;;8.52;;
74510;SDS011;62991;50.040;18.400;2023-04-01T21:01:01;90.70;;;32.13;;
74510;SDS011;62991;50.040;18.400;2023-04-01T21:14:27;51.45;;;22.38;;
74510;SDS011;62991;50.040;18.400;2023-04-01T21:24:38;65.38;;;18.65;;
74510;SDS011;62991;50.040;18.400;2023-04-01T21:37:58;19.45;;;7.43;;
74510;SDS011;62991;50.040;18.400;2023-04-01T21:58:30;23.30;;;9.40;;
74510;SDS011;62991;50.040;18.400;2023-04-01T22:21:35;26.55;;;9.60;;
74510;SDS011;62991;50.040;18.400;2023-04-01T22:28:00;13.07;;;5.90;;
74510;SDS011;62991;50.040;18.400;2023-04-01T22:31:26;10.82;;;5.20;;
74510;SDS011;62991;50.040;18.400;2023-04-01T22:34:41;13.68;;;5.95;;
74510;SDS011;62991;50.040;18.400;2023-04-01T22:37:56;13.13;;;6.18;;
74510;SDS011;62991;50.040;18.400;2023-04-01T22:44:28;14.52;;;6.53;;
74510;SDS011;62991;50.040;18.400;2023-04-01T22:47:44;12.23;;;5.30;;
74510;SDS011;62991;50.040;18.400;2023-04-01T22:54:49;11.63;;;5.43;;
74510;SDS011;62991;50.040;18.400;2023-04-01T22:57:54;15.35;;;6.60;;
74510;SDS011;62991;50.040;18.400;2023-04-01T23:00:59;14.25;;;6.47;;
74510;SDS011;62991;50.040;18.400;2023-04-01T23:04:07;17.38;;;6.10;;
74510;SDS011;62991;50.040;18.400;2023-04-01T23:07:37;11.50;;;5.38;;
74510;SDS011;62991;50.040;18.400;2023-04-01T23:24:14;14.40;;;5.75;;
74510;SDS011;62991;50.040;18.400;2023-04-01T23:30:47;19.42;;;6.47;;
74510;SDS011;62991;50.040;18.400;2023-04-01T23:33:53;13.05;;;6.72;;
74510;SDS011;62991;50.040;18.400;2023-04-01T23:37:10;20.50;;;7.30;;
74510;SDS011;62991;50.040;18.400;2023-04-01T23:40:12;19.33;;;7.22;;
74510;SDS011;62991;50.040;18.400;2023-04-01T23:43:14;16.10;;;6.95;;
74510;SDS011;62991;50.040;18.400;2023-04-01T23:46:23;16.63;;;6.40;;
74510;SDS011;62991;50.040;18.400;2023-04-01T23:49:36;16.10;;;6.65;;
74510;SDS011;62991;50.040;18.400;2023-04-01T23:52:48;15.40;;;7.60;;
74510;SDS011;62991;50.040;18.400;2023-04-01T23:55:52;13.15;;;6.85;;
74510;SDS011;62991;50.040;18.400;2023-04-01T23:58:55;17.05;;;7.45;;
